createdAt,value
2019-02-19T00:00:51.474Z,73.75
2019-02-19T00:01:57.798Z,70.90
2019-02-19T00:03:02.770Z,74.12
2019-02-19T00:04:07.534Z,71.45
2019-02-19T00:05:12.496Z,70.50
2019-02-19T00:06:17.385Z,70.85
2019-02-19T00:07:22.240Z,72.80
2019-02-19T00:08:27.108Z,72.20
2019-02-19T00:09:32.112Z,74.20
2019-02-19T00:10:36.973Z,70.85
2019-02-19T00:11:41.877Z,74.05
2019-02-19T00:12:46.649Z,72.00
2019-02-19T00:13:51.650Z,72.58
2019-02-19T00:14:56.620Z,72.47
2019-02-19T00:16:01.672Z,73.20
2019-02-19T00:17:06.533Z,76.10
2019-02-19T00:18:11.533Z,73.50
2019-02-19T00:19:16.252Z,74.07
2019-02-19T00:20:21.148Z,73.90
2019-02-19T00:21:26.036Z,72.82
2019-02-19T00:22:30.897Z,75.78
2019-02-19T00:23:35.649Z,70.75
2019-02-19T00:24:40.585Z,70.35
2019-02-19T00:25:45.474Z,73.17
2019-02-19T00:26:50.396Z,74.70
2019-02-19T00:27:55.152Z,74.50
2019-02-19T00:28:59.978Z,80.22
2019-02-19T00:30:04.924Z,76.97
2019-02-19T00:31:09.820Z,76.07
2019-02-19T00:32:14.713Z,79.42
2019-02-19T00:33:19.492Z,79.03
2019-02-19T00:34:24.452Z,75.10
2019-02-19T00:35:29.449Z,76.62
2019-02-19T00:36:34.500Z,78.83
2019-02-19T00:37:39.519Z,74.40
2019-02-19T00:38:44.554Z,76.45
2019-02-19T00:39:49.344Z,78.15
2019-02-19T00:40:54.313Z,81.00
2019-02-19T00:41:59.309Z,77.42
2019-02-19T00:43:04.236Z,78.17
2019-02-19T00:44:09.233Z,76.10
2019-02-19T00:45:16.682Z,76.53
2019-02-19T00:46:20.648Z,77.17
2019-02-19T00:47:25.483Z,76.05
2019-02-19T00:48:30.404Z,70.78
2019-02-19T00:49:35.340Z,73.33
2019-02-19T00:50:40.324Z,72.95
2019-02-19T00:51:45.096Z,72.92
2019-02-19T00:52:50.084Z,72.20
2019-02-19T00:53:55.009Z,72.90
2019-02-19T00:55:00.040Z,72.30
2019-02-19T00:56:05.114Z,74.72
2019-02-19T00:57:09.868Z,74.17
2019-02-19T00:58:15.094Z,73.90
2019-02-19T00:59:20.060Z,75.15
2019-02-19T01:00:25.030Z,74.03
2019-02-19T01:01:29.891Z,73.47
2019-02-19T01:02:34.748Z,74.53
2019-02-19T01:03:40.036Z,74.85
2019-02-19T01:04:44.924Z,74.67
2019-02-19T01:05:49.716Z,70.57
2019-02-19T01:06:54.704Z,73.25
2019-02-19T01:07:59.964Z,75.57
2019-02-19T01:09:06.788Z,75.37
2019-02-19T01:10:11.879Z,75.15
2019-02-19T01:11:16.912Z,75.28
2019-02-19T01:12:21.817Z,75.28
2019-02-19T01:13:26.576Z,76.28
2019-02-19T01:14:31.504Z,74.25
2019-02-19T01:15:36.347Z,76.28
2019-02-19T01:16:41.221Z,77.25
2019-02-19T01:17:46.100Z,78.37
2019-02-19T01:18:50.990Z,75.65
2019-02-19T01:19:55.852Z,77.12
2019-02-19T01:21:00.960Z,77.95
2019-02-19T01:22:05.882Z,78.65
2019-02-19T01:23:10.757Z,78.00
2019-02-19T01:24:15.611Z,77.22
2019-02-19T01:25:20.605Z,79.72
2019-02-19T01:26:26.675Z,77.42
2019-02-19T01:27:31.424Z,72.17
2019-02-19T01:28:36.401Z,74.32
2019-02-19T01:29:41.250Z,79.03
2019-02-19T01:30:46.193Z,80.38
2019-02-19T01:31:51.076Z,78.30
2019-02-19T01:32:55.957Z,78.92
2019-02-19T01:34:00.696Z,77.67
2019-02-19T01:35:06.364Z,78.62
2019-02-19T01:36:11.356Z,81.25
2019-02-19T01:37:16.219Z,81.82
2019-02-19T01:38:20.960Z,82.70
2019-02-19T01:39:26.133Z,79.05
2019-02-19T01:40:30.992Z,78.95
2019-02-19T01:41:35.735Z,72.97
2019-02-19T01:42:40.500Z,73.67
2019-02-19T01:43:45.364Z,82.92
2019-02-19T01:44:50.227Z,82.57
2019-02-19T01:45:55.109Z,83.90
2019-02-19T01:46:59.976Z,85.53
2019-02-19T01:48:04.955Z,90.75
2019-02-19T01:49:10.324Z,90.83
2019-02-19T01:50:15.184Z,89.45
2019-02-19T01:51:20.032Z,87.50
2019-02-19T01:52:24.952Z,86.90
2019-02-19T01:53:30.036Z,82.53
2019-02-19T01:54:34.896Z,82.72
2019-02-19T01:55:39.668Z,81.20
2019-02-19T01:56:44.640Z,80.65
2019-02-19T01:57:49.362Z,76.20
2019-02-19T01:58:54.877Z,75.85
2019-02-19T01:59:59.736Z,74.35
2019-02-19T02:01:04.733Z,70.62
2019-02-19T02:02:09.474Z,67.08
2019-02-19T02:03:14.588Z,66.45
2019-02-19T02:04:19.484Z,65.95
2019-02-19T02:05:24.379Z,65.17
2019-02-19T02:06:29.090Z,66.35
2019-02-19T02:07:33.957Z,66.02
2019-02-19T02:08:38.789Z,67.30
2019-02-19T02:09:43.688Z,62.43
2019-02-19T02:10:48.432Z,60.92
2019-02-19T02:11:54.264Z,65.12
2019-02-19T02:12:59.156Z,63.00
2019-02-19T02:14:04.156Z,64.30
2019-02-19T02:15:09.089Z,64.25
2019-02-19T02:16:13.876Z,65.30
2019-02-19T02:17:18.741Z,62.27
2019-02-19T02:18:23.471Z,63.17
2019-02-19T02:19:28.243Z,62.20
2019-02-19T02:20:33.503Z,62.43
2019-02-19T02:21:38.348Z,62.23
2019-02-19T02:22:43.128Z,62.83
2019-02-19T02:23:47.866Z,63.83
2019-02-19T02:24:52.761Z,61.40
2019-02-19T02:25:57.652Z,63.63
2019-02-19T02:27:02.398Z,65.08
2019-02-19T02:28:07.181Z,61.90
2019-02-19T02:29:11.959Z,61.75
2019-02-19T02:30:16.858Z,61.30
2019-02-19T02:31:21.777Z,62.25
2019-02-19T02:32:26.518Z,62.15
2019-02-19T02:33:31.392Z,62.00
2019-02-19T02:34:36.158Z,65.57
2019-02-19T02:35:41.036Z,65.50
2019-02-19T02:36:46.025Z,64.03
2019-02-19T02:37:50.896Z,66.22
2019-02-19T02:38:55.732Z,68.22
2019-02-19T02:40:00.683Z,70.60
2019-02-19T02:41:05.446Z,73.45
2019-02-19T02:42:10.397Z,71.62
2019-02-19T02:43:15.265Z,70.30
2019-02-19T02:44:19.989Z,69.53
2019-02-19T02:45:24.792Z,69.77
2019-02-19T02:46:29.680Z,69.65
2019-02-19T02:47:34.549Z,73.57
2019-02-19T02:48:39.284Z,73.35
2019-02-19T02:49:45.229Z,72.37
2019-02-19T02:50:50.208Z,66.28
2019-02-19T02:51:55.073Z,65.70
2019-02-19T02:52:59.895Z,63.45
2019-02-19T02:54:04.844Z,63.48
2019-02-19T02:55:09.905Z,63.98
2019-02-19T02:56:14.720Z,66.80
2019-02-19T02:57:19.592Z,63.40
2019-02-19T02:58:24.522Z,64.15
2019-02-19T02:59:29.377Z,63.68
2019-02-19T03:00:34.129Z,63.60
2019-02-19T03:01:38.993Z,63.10
2019-02-19T03:02:43.761Z,63.85
2019-02-19T03:03:48.501Z,63.50
2019-02-19T03:04:53.345Z,63.23
2019-02-19T03:06:03.499Z,64.15
2019-02-19T03:07:30.045Z,62.43
2019-02-19T03:08:34.801Z,59.83
2019-02-19T03:09:39.677Z,64.37
2019-02-19T03:10:44.581Z,64.27
2019-02-19T03:11:49.457Z,63.58
2019-02-19T03:12:54.244Z,60.85
2019-02-19T03:13:59.136Z,62.20
2019-02-19T03:15:04.597Z,63.15
2019-02-19T03:16:09.424Z,61.83
2019-02-19T03:17:14.416Z,64.03
2019-02-19T03:18:19.241Z,61.75
2019-02-19T03:19:24.107Z,62.45
2019-02-19T03:20:28.860Z,64.27
2019-02-19T03:21:33.833Z,66.35
2019-02-19T03:22:38.723Z,65.37
2019-02-19T03:23:43.640Z,67.25
2019-02-19T03:24:48.489Z,64.35
2019-02-19T03:25:53.265Z,62.15
2019-02-19T03:26:57.989Z,63.70
2019-02-19T03:28:02.873Z,66.45
2019-02-19T03:29:07.708Z,64.72
2019-02-19T03:30:12.554Z,65.70
2019-02-19T03:31:17.314Z,65.67
2019-02-19T03:32:22.201Z,62.70
2019-02-19T03:33:27.083Z,65.75
2019-02-19T03:34:31.930Z,67.62
2019-02-19T03:35:36.679Z,64.65
2019-02-19T03:36:41.696Z,66.12
2019-02-19T03:37:46.438Z,67.30
2019-02-19T03:38:51.296Z,66.72
2019-02-19T03:39:56.081Z,65.32
2019-02-19T03:41:00.991Z,66.35
2019-02-19T03:42:06.201Z,67.62
2019-02-19T03:43:11.043Z,68.17
2019-02-19T03:44:15.937Z,65.03
2019-02-19T03:45:20.789Z,65.17
2019-02-19T03:46:25.696Z,67.50
2019-02-19T03:47:30.575Z,66.15
2019-02-19T03:48:35.339Z,63.70
2019-02-19T03:49:40.086Z,65.85
2019-02-19T03:50:44.966Z,64.87
2019-02-19T03:51:49.830Z,65.10
2019-02-19T03:52:54.580Z,63.73
2019-02-19T03:53:59.549Z,63.50
2019-02-19T03:55:04.493Z,66.12
2019-02-19T03:56:09.284Z,66.37
2019-02-19T03:57:14.132Z,64.75
2019-02-19T03:58:19.107Z,66.90
2019-02-19T03:59:23.933Z,63.05
2019-02-19T04:00:28.654Z,61.88
2019-02-19T04:01:33.744Z,65.57
2019-02-19T04:02:38.561Z,65.08
2019-02-19T04:03:43.604Z,64.22
2019-02-19T04:04:48.645Z,67.00
2019-02-19T04:05:53.562Z,67.27
2019-02-19T04:06:58.289Z,65.25
2019-02-19T04:08:03.301Z,66.42
2019-02-19T04:09:08.293Z,70.03
2019-02-19T04:10:13.145Z,67.37
2019-02-19T04:11:17.932Z,70.42
2019-02-19T04:12:23.695Z,68.67
2019-02-19T04:13:28.533Z,68.60
2019-02-19T04:14:33.304Z,70.85
2019-02-19T04:15:38.317Z,66.07
2019-02-19T04:16:43.215Z,66.22
2019-02-19T04:17:48.057Z,66.25
2019-02-19T04:18:52.799Z,67.30
2019-02-19T04:19:57.662Z,68.40
2019-02-19T04:21:02.512Z,68.87
2019-02-19T04:22:07.664Z,67.78
2019-02-19T04:23:12.423Z,63.95
2019-02-19T04:24:17.268Z,67.70
2019-02-19T04:25:22.128Z,66.70
2019-02-19T04:26:27.165Z,64.07
2019-02-19T04:27:32.138Z,63.80
2019-02-19T04:28:36.901Z,66.33
2019-02-19T04:29:41.686Z,67.85
2019-02-19T04:30:46.412Z,65.95
2019-02-19T04:31:51.332Z,67.25
2019-02-19T04:32:56.199Z,65.35
2019-02-19T04:34:00.968Z,64.40
2019-02-19T04:35:06.180Z,67.53
2019-02-19T04:36:11.226Z,68.10
2019-02-19T04:37:16.087Z,64.87
2019-02-19T04:38:20.969Z,63.68
2019-02-19T04:39:25.709Z,62.67
2019-02-19T04:40:30.684Z,64.12
2019-02-19T04:41:35.578Z,61.75
2019-02-19T04:42:40.401Z,62.58
2019-02-19T04:43:45.140Z,60.38
2019-02-19T04:44:49.997Z,62.55
2019-02-19T04:45:54.891Z,63.58
2019-02-19T04:46:59.692Z,59.93
2019-02-19T04:48:04.484Z,61.05
2019-02-19T04:49:09.496Z,63.00
2019-02-19T04:50:14.407Z,61.53
2019-02-19T04:51:19.404Z,64.80
2019-02-19T04:52:24.149Z,61.92
2019-02-19T04:53:29.028Z,63.13
2019-02-19T04:54:33.892Z,60.70
2019-02-19T04:55:38.788Z,63.60
2019-02-19T04:56:43.708Z,62.10
2019-02-19T04:57:48.436Z,59.67
2019-02-19T04:58:53.312Z,65.25
2019-02-19T04:59:58.185Z,68.70
2019-02-19T05:01:02.985Z,65.97
2019-02-19T05:02:08.030Z,66.42
2019-02-19T05:03:12.872Z,62.65
2019-02-19T05:04:17.758Z,63.98
2019-02-19T05:05:22.528Z,64.17
2019-02-19T05:06:27.410Z,65.52
2019-02-19T05:07:32.314Z,63.70
2019-02-19T05:08:37.169Z,64.70
2019-02-19T05:09:41.943Z,62.35
2019-02-19T05:10:47.224Z,64.87
2019-02-19T05:11:52.129Z,65.03
2019-02-19T05:12:56.889Z,68.25
2019-02-19T05:14:01.682Z,64.20
2019-02-19T05:15:07.060Z,71.75
2019-02-19T05:16:12.025Z,69.07
2019-02-19T05:17:16.933Z,70.35
2019-02-19T05:18:21.704Z,70.28
2019-02-19T05:19:26.654Z,68.33
2019-02-19T05:20:31.386Z,69.25
2019-02-19T05:21:36.330Z,65.80
2019-02-19T05:22:41.223Z,67.72
2019-02-19T05:23:46.216Z,62.00
2019-02-19T05:24:50.955Z,64.62
2019-02-19T05:25:56.006Z,61.08
2019-02-19T05:27:00.752Z,61.90
2019-02-19T05:28:05.636Z,61.37
2019-02-19T05:29:11.063Z,61.75
2019-02-19T05:30:15.956Z,60.28
2019-02-19T05:31:20.832Z,62.05
2019-02-19T05:32:25.757Z,60.05
2019-02-19T05:33:30.679Z,60.75
2019-02-19T05:34:35.584Z,61.92
2019-02-19T05:35:40.574Z,61.02
2019-02-19T05:36:45.424Z,59.77
2019-02-19T05:37:50.365Z,59.63
2019-02-19T05:38:55.276Z,62.60
2019-02-19T05:40:00.148Z,59.88
2019-02-19T05:41:05.199Z,59.60
2019-02-19T05:42:09.981Z,59.65
2019-02-19T05:43:14.857Z,61.18
2019-02-19T05:44:19.870Z,60.03
2019-02-19T05:45:24.752Z,60.15
2019-02-19T05:46:29.672Z,58.50
2019-02-19T05:47:35.012Z,60.78
2019-02-19T05:48:39.993Z,58.13
2019-02-19T05:49:45.068Z,58.05
2019-02-19T05:50:50.088Z,60.10
2019-02-19T05:51:55.094Z,59.03
2019-02-19T05:52:59.979Z,59.93
2019-02-19T05:54:04.908Z,66.42
2019-02-19T05:55:09.916Z,66.37
2019-02-19T05:56:15.033Z,62.53
2019-02-19T05:57:19.968Z,63.92
2019-02-19T05:58:24.829Z,61.15
2019-02-19T05:59:29.578Z,61.58
2019-02-19T06:00:34.333Z,60.85
2019-02-19T06:01:39.138Z,61.75
2019-02-19T06:02:43.979Z,65.85
2019-02-19T06:03:48.699Z,66.15
2019-02-19T06:04:53.444Z,64.62
2019-02-19T06:05:58.294Z,61.10
2019-02-19T06:07:03.060Z,61.28
2019-02-19T06:08:07.974Z,63.78
2019-02-19T06:09:12.842Z,61.92
2019-02-19T06:10:17.758Z,61.77
2019-02-19T06:11:22.642Z,63.80
2019-02-19T06:12:27.601Z,61.83
2019-02-19T06:13:32.440Z,63.00
2019-02-19T06:14:37.201Z,61.42
2019-02-19T06:15:41.933Z,59.93
2019-02-19T06:16:46.669Z,59.95
2019-02-19T06:17:51.461Z,61.40
2019-02-19T06:18:56.215Z,61.50
2019-02-19T06:20:00.921Z,60.85
2019-02-19T06:21:05.657Z,60.75
2019-02-19T06:22:10.402Z,61.35
2019-02-19T06:23:15.152Z,62.62
2019-02-19T06:24:19.996Z,60.98
2019-02-19T06:25:24.829Z,61.98
2019-02-19T06:26:29.519Z,64.32
2019-02-19T06:27:34.809Z,62.70
2019-02-19T06:28:39.556Z,61.15
2019-02-19T06:29:44.306Z,61.75
2019-02-19T06:30:48.995Z,62.65
2019-02-19T06:31:53.727Z,63.25
2019-02-19T06:32:58.510Z,64.17
2019-02-19T06:34:03.249Z,62.45
2019-02-19T06:35:08.123Z,64.25
2019-02-19T06:36:12.830Z,62.67
2019-02-19T06:37:17.588Z,66.62
2019-02-19T06:38:22.370Z,65.03
2019-02-19T06:39:27.100Z,65.78
2019-02-19T06:40:31.920Z,62.45
2019-02-19T06:41:36.760Z,62.65
2019-02-19T06:42:41.600Z,59.93
2019-02-19T06:43:46.404Z,62.03
2019-02-19T06:44:51.212Z,60.20
2019-02-19T06:45:55.979Z,61.35
2019-02-19T06:47:06.673Z,60.43
2019-02-19T06:48:07.315Z,59.20
2019-02-19T06:49:12.050Z,57.80
2019-02-19T06:50:16.750Z,59.95
2019-02-19T06:51:21.489Z,58.58
2019-02-19T06:52:26.202Z,55.85
2019-02-19T06:53:30.956Z,54.88
2019-02-19T06:54:35.727Z,57.10
2019-02-19T06:55:40.449Z,56.35
2019-02-19T06:56:45.161Z,56.75
2019-02-19T06:57:49.893Z,55.92
2019-02-19T06:58:54.641Z,55.05
2019-02-19T06:59:59.384Z,56.10
2019-02-19T07:01:04.174Z,57.15
2019-02-19T07:02:36.864Z,54.67
2019-02-19T07:04:00.465Z,52.25
2019-02-19T07:05:08.217Z,50.80
2019-02-19T07:06:12.954Z,52.13
2019-02-19T07:07:17.671Z,52.43
2019-02-19T07:08:22.437Z,51.45
2019-02-19T07:09:27.173Z,51.33
2019-02-19T07:10:31.870Z,50.80
2019-02-19T07:11:36.620Z,50.90
2019-02-19T07:12:41.360Z,51.63
2019-02-19T07:13:46.144Z,50.12
2019-02-19T07:14:50.901Z,51.65
2019-02-19T07:15:55.665Z,49.63
2019-02-19T07:17:00.412Z,50.23
2019-02-19T07:18:05.183Z,50.38
2019-02-19T07:19:09.999Z,50.15
2019-02-19T07:20:14.808Z,49.67
2019-02-19T07:21:19.756Z,50.65
2019-02-19T07:22:24.569Z,51.30
2019-02-19T07:23:29.363Z,51.37
2019-02-19T07:24:34.209Z,51.98
2019-02-19T07:25:39.097Z,52.13
2019-02-19T07:26:43.877Z,50.95
2019-02-19T07:27:48.638Z,48.92
2019-02-19T07:28:53.532Z,48.33
2019-02-19T07:29:58.588Z,49.60
2019-02-19T07:31:03.348Z,49.53
2019-02-19T07:32:08.153Z,49.73
2019-02-19T07:33:12.929Z,47.15
2019-02-19T07:34:17.722Z,47.53
2019-02-19T07:35:22.411Z,48.38
2019-02-19T07:36:27.130Z,48.78
2019-02-19T07:37:31.872Z,47.62
2019-02-19T07:38:36.574Z,46.18
2019-02-19T07:39:41.326Z,48.48
2019-02-19T07:40:46.076Z,48.85
2019-02-19T07:41:50.802Z,49.23
2019-02-19T07:42:55.554Z,50.55
2019-02-19T07:44:00.363Z,48.00
2019-02-19T07:45:05.247Z,51.13
2019-02-19T07:46:10.076Z,48.95
2019-02-19T07:47:14.895Z,47.85
2019-02-19T07:48:19.649Z,48.05
2019-02-19T07:49:24.476Z,47.65
2019-02-19T07:50:29.231Z,45.98
2019-02-19T07:51:33.935Z,46.10
2019-02-19T07:52:38.678Z,46.42
2019-02-19T07:53:43.443Z,44.38
2019-02-19T07:54:48.205Z,46.23
2019-02-19T07:55:52.980Z,44.63
2019-02-19T07:56:57.692Z,46.58
2019-02-19T07:58:02.421Z,45.28
2019-02-19T07:59:07.204Z,46.65
2019-02-19T08:00:12.403Z,46.95
2019-02-19T08:01:17.122Z,46.95
2019-02-19T08:02:21.907Z,48.52
2019-02-19T08:03:26.815Z,50.10
2019-02-19T08:04:31.614Z,46.95
2019-02-19T08:05:36.716Z,48.17
2019-02-19T08:06:41.548Z,46.00
2019-02-19T08:07:49.091Z,44.58
2019-02-19T08:08:53.990Z,42.95
2019-02-19T08:09:58.918Z,46.15
2019-02-19T08:11:05.944Z,45.55
2019-02-19T08:12:10.988Z,44.90
2019-02-19T08:13:15.836Z,43.35
2019-02-19T08:14:20.984Z,44.65
2019-02-19T08:15:26.071Z,44.00
2019-02-19T08:16:31.240Z,44.13
2019-02-19T08:17:37.626Z,44.63
2019-02-19T08:18:42.544Z,44.67
2019-02-19T08:19:48.817Z,42.90
2019-02-19T08:20:53.754Z,40.80
2019-02-19T08:21:58.909Z,43.70
2019-02-19T08:23:03.865Z,41.45
2019-02-19T08:24:08.697Z,41.70
2019-02-19T08:25:13.459Z,42.62
2019-02-19T08:26:18.279Z,40.00
2019-02-19T08:27:23.042Z,40.75
2019-02-19T08:28:27.835Z,41.80
2019-02-19T08:29:32.676Z,41.23
2019-02-19T08:30:37.402Z,39.45
2019-02-19T08:31:42.173Z,39.92
2019-02-19T08:32:46.976Z,39.98
2019-02-19T08:33:51.881Z,38.67
2019-02-19T08:34:56.858Z,38.13
2019-02-19T08:36:01.803Z,37.78
2019-02-19T08:37:06.619Z,37.78
2019-02-19T08:38:11.525Z,38.70
2019-02-19T08:39:16.253Z,39.35
2019-02-19T08:40:22.910Z,39.45
2019-02-19T08:41:27.710Z,38.83
2019-02-19T08:42:32.594Z,36.48
2019-02-19T08:43:37.500Z,37.73
2019-02-19T08:44:42.584Z,36.55
2019-02-19T08:45:47.599Z,38.00
2019-02-19T08:46:52.664Z,36.40
2019-02-19T08:47:57.599Z,35.65
2019-02-19T08:49:02.506Z,35.40
2019-02-19T08:50:07.634Z,34.27
2019-02-19T08:51:12.544Z,33.18
2019-02-19T08:52:18.778Z,33.55
2019-02-19T08:53:24.174Z,34.38
2019-02-19T08:54:29.170Z,34.43
2019-02-19T08:55:34.890Z,34.70
2019-02-19T08:56:40.053Z,34.75
2019-02-19T08:57:44.989Z,35.70
2019-02-19T08:58:49.974Z,34.83
2019-02-19T08:59:55.093Z,35.95
2019-02-19T09:00:59.985Z,35.73
2019-02-19T09:02:04.901Z,35.80
2019-02-19T09:03:09.980Z,36.88
2019-02-19T09:04:14.739Z,37.60
2019-02-19T09:05:19.731Z,36.28
2019-02-19T09:06:24.724Z,37.42
2019-02-19T09:07:29.505Z,37.80
2019-02-19T09:08:34.582Z,37.65
2019-02-19T09:09:39.400Z,37.03
2019-02-19T09:10:44.463Z,37.30
2019-02-19T09:11:49.301Z,34.50
2019-02-19T09:12:54.115Z,35.58
2019-02-19T09:13:58.959Z,34.63
2019-02-19T09:15:03.750Z,33.42
2019-02-19T09:16:08.609Z,33.67
2019-02-19T09:17:13.522Z,34.53
2019-02-19T09:18:18.268Z,33.85
2019-02-19T09:19:23.041Z,35.73
2019-02-19T09:20:27.841Z,35.13
2019-02-19T09:21:32.641Z,36.03
2019-02-19T09:22:37.470Z,36.38
2019-02-19T09:23:42.428Z,36.93
2019-02-19T09:24:47.361Z,35.65
2019-02-19T09:25:52.128Z,36.93
2019-02-19T09:26:59.530Z,35.05
2019-02-19T09:28:04.288Z,37.78
2019-02-19T09:29:09.042Z,37.25
2019-02-19T09:30:14.073Z,37.20
2019-02-19T09:31:18.798Z,37.42
2019-02-19T09:32:23.558Z,40.23
2019-02-19T09:33:28.318Z,39.65
2019-02-19T09:34:33.083Z,39.18
2019-02-19T09:35:37.866Z,38.30
2019-02-19T09:36:42.590Z,37.78
2019-02-19T09:37:47.325Z,38.73
2019-02-19T09:38:52.097Z,38.02
2019-02-19T09:39:56.826Z,39.13
2019-02-19T09:41:01.566Z,40.43
2019-02-19T09:42:06.324Z,38.30
2019-02-19T09:43:11.065Z,39.60
2019-02-19T09:44:15.875Z,36.95
2019-02-19T09:45:20.644Z,37.03
2019-02-19T09:46:25.454Z,37.58
2019-02-19T09:47:30.236Z,37.13
2019-02-19T09:48:34.967Z,36.53
2019-02-19T09:49:39.719Z,37.60
2019-02-19T09:50:44.490Z,37.00
2019-02-19T09:51:49.266Z,37.35
2019-02-19T09:53:00.117Z,37.98
2019-02-19T09:54:00.498Z,36.17
2019-02-19T09:55:05.625Z,37.60
2019-02-19T09:56:10.590Z,38.67
2019-02-19T09:57:15.361Z,37.60
2019-02-19T09:58:20.183Z,36.60
2019-02-19T09:59:25.080Z,35.70
2019-02-19T10:00:30.102Z,34.90
2019-02-19T10:01:34.999Z,36.15
2019-02-19T10:02:39.804Z,35.92
2019-02-19T10:03:44.605Z,35.78
2019-02-19T10:04:49.477Z,34.50
2019-02-19T10:05:54.297Z,35.88
2019-02-19T10:06:59.126Z,35.00
2019-02-19T10:08:04.032Z,33.92
2019-02-19T10:09:09.990Z,34.67
2019-02-19T10:10:16.100Z,34.05
2019-02-19T10:11:20.921Z,33.53
2019-02-19T10:12:25.753Z,33.65
2019-02-19T10:13:30.660Z,33.15
2019-02-19T10:14:35.596Z,30.55
2019-02-19T10:15:40.505Z,32.08
2019-02-19T10:16:45.461Z,30.95
2019-02-19T10:17:50.352Z,31.10
2019-02-19T10:18:55.190Z,32.88
2019-02-19T10:20:00.025Z,31.02
2019-02-19T10:21:05.097Z,31.95
2019-02-19T10:22:10.031Z,32.65
2019-02-19T10:23:15.004Z,31.33
2019-02-19T10:24:19.716Z,32.40
2019-02-19T10:25:24.554Z,32.75
2019-02-19T10:26:29.407Z,32.05
2019-02-19T10:27:34.435Z,31.15
2019-02-19T10:28:39.614Z,33.40
2019-02-19T10:29:44.528Z,35.05
2019-02-19T10:30:49.339Z,32.17
2019-02-19T10:31:54.276Z,29.35
2019-02-19T10:32:59.143Z,31.80
2019-02-19T10:34:03.988Z,30.92
2019-02-19T10:35:09.688Z,29.90
2019-02-19T10:36:14.594Z,30.92
2019-02-19T10:37:19.613Z,30.82
2019-02-19T10:38:24.540Z,29.77
2019-02-19T10:39:29.308Z,29.70
2019-02-19T10:40:34.267Z,31.12
2019-02-19T10:41:39.258Z,31.17
2019-02-19T10:42:44.126Z,30.50
2019-02-19T10:43:49.012Z,29.63
2019-02-19T10:44:53.967Z,29.02
2019-02-19T10:45:59.048Z,30.25
2019-02-19T10:47:04.125Z,30.27
2019-02-19T10:48:09.073Z,30.60
2019-02-19T10:49:14.020Z,31.20
2019-02-19T10:50:19.447Z,31.12
2019-02-19T10:51:24.315Z,31.70
2019-02-19T10:52:29.233Z,30.17
2019-02-19T10:53:34.084Z,32.08
2019-02-19T10:54:39.045Z,31.23
2019-02-19T10:55:43.836Z,31.07
2019-02-19T10:56:48.705Z,30.43
2019-02-19T10:57:53.584Z,30.00
2019-02-19T10:58:58.533Z,30.15
2019-02-19T11:00:03.469Z,29.30
2019-02-19T11:01:08.320Z,29.50
2019-02-19T11:02:13.140Z,30.12
2019-02-19T11:03:17.924Z,29.63
2019-02-19T11:04:22.695Z,29.77
2019-02-19T11:05:27.503Z,29.07
2019-02-19T11:06:32.306Z,30.88
2019-02-19T11:07:37.121Z,29.80
2019-02-19T11:08:41.919Z,29.52
2019-02-19T11:09:46.720Z,30.08
2019-02-19T11:10:51.520Z,30.68
2019-02-19T11:11:58.075Z,30.40
2019-02-19T11:13:03.046Z,30.20
2019-02-19T11:14:07.852Z,29.52
2019-02-19T11:15:12.750Z,29.92
2019-02-19T11:16:17.510Z,30.77
2019-02-19T11:17:22.335Z,30.82
2019-02-19T11:18:28.730Z,29.02
2019-02-19T11:19:33.532Z,29.60
2019-02-19T11:20:38.299Z,29.12
2019-02-19T11:21:43.088Z,28.30
2019-02-19T11:22:47.929Z,32.33
2019-02-19T11:23:52.664Z,30.65
2019-02-19T11:24:57.366Z,28.90
2019-02-19T11:26:02.080Z,29.15
2019-02-19T11:27:06.886Z,30.35
2019-02-19T11:28:11.738Z,29.92
2019-02-19T11:29:16.535Z,27.73
2019-02-19T11:30:21.371Z,29.27
2019-02-19T11:31:26.166Z,30.65
2019-02-19T11:32:31.007Z,28.55
2019-02-19T11:33:35.775Z,28.83
2019-02-19T11:34:40.563Z,29.65
2019-02-19T11:35:45.428Z,27.48
2019-02-19T11:36:50.218Z,30.75
2019-02-19T11:37:55.054Z,29.67
2019-02-19T11:39:00.039Z,29.32
2019-02-19T11:40:05.048Z,26.75
2019-02-19T11:41:10.043Z,28.10
2019-02-19T11:42:14.812Z,27.07
2019-02-19T11:43:19.689Z,26.75
2019-02-19T11:44:24.468Z,28.10
2019-02-19T11:45:29.281Z,26.57
2019-02-19T11:46:34.150Z,23.50
2019-02-19T11:47:38.948Z,24.60
2019-02-19T11:48:43.781Z,22.42
2019-02-19T11:49:48.648Z,22.73
2019-02-19T11:50:53.482Z,22.93
2019-02-19T11:51:58.305Z,22.80
2019-02-19T11:53:03.119Z,22.85
2019-02-19T11:54:08.041Z,22.30
2019-02-19T11:55:13.610Z,23.00
2019-02-19T11:56:18.387Z,23.00
2019-02-19T11:57:23.282Z,24.70
2019-02-19T11:58:28.045Z,23.95
2019-02-19T11:59:32.895Z,23.18
2019-02-19T12:00:39.816Z,24.47
2019-02-19T12:01:44.779Z,24.55
2019-02-19T12:02:49.600Z,24.20
2019-02-19T12:03:54.401Z,22.65
2019-02-19T12:04:59.356Z,22.45
2019-02-19T12:06:04.129Z,21.52
2019-02-19T12:07:09.005Z,21.15
2019-02-19T12:08:14.740Z,21.17
2019-02-19T12:09:19.552Z,21.77
2019-02-19T12:10:24.438Z,20.65
2019-02-19T12:11:29.238Z,21.30
2019-02-19T12:12:34.041Z,21.05
2019-02-19T12:13:38.884Z,21.15
2019-02-19T12:14:43.662Z,22.90
2019-02-19T12:15:48.523Z,20.97
2019-02-19T12:16:53.475Z,21.55
2019-02-19T12:17:58.234Z,21.20
2019-02-19T12:19:02.992Z,21.97
2019-02-19T12:20:08.102Z,21.37
2019-02-19T12:21:12.878Z,19.67
2019-02-19T12:22:17.696Z,22.70
2019-02-19T12:23:22.507Z,21.60
2019-02-19T12:24:27.309Z,22.40
2019-02-19T12:25:32.106Z,23.60
2019-02-19T12:26:36.948Z,21.07
2019-02-19T12:27:41.957Z,20.52
2019-02-19T12:28:46.972Z,19.87
2019-02-19T12:29:51.827Z,20.70
2019-02-19T12:30:56.737Z,21.17
2019-02-19T12:32:01.620Z,20.83
2019-02-19T12:33:06.536Z,20.32
2019-02-19T12:34:11.569Z,22.35
2019-02-19T12:35:16.737Z,21.37
2019-02-19T12:36:21.781Z,23.18
2019-02-19T12:37:26.656Z,23.50
2019-02-19T12:38:31.532Z,24.45
2019-02-19T12:39:36.367Z,23.38
2019-02-19T12:40:41.231Z,25.17
2019-02-19T12:41:46.180Z,25.37
2019-02-19T12:42:53.435Z,25.72
2019-02-19T12:43:58.356Z,23.38
2019-02-19T12:45:03.405Z,25.50
2019-02-19T12:46:08.272Z,24.05
2019-02-19T12:47:13.334Z,24.47
2019-02-19T12:48:18.178Z,23.57
2019-02-19T12:49:23.189Z,24.00
2019-02-19T12:50:28.120Z,24.37
2019-02-19T12:51:33.192Z,23.65
2019-02-19T12:52:38.172Z,24.10
2019-02-19T12:53:43.091Z,24.72
2019-02-19T12:54:48.027Z,24.05
2019-02-19T12:55:53.532Z,25.68
2019-02-19T12:56:58.612Z,24.87
2019-02-19T12:58:03.760Z,24.72
2019-02-19T12:59:08.633Z,24.52
2019-02-19T13:00:15.587Z,25.40
2019-02-19T13:01:20.454Z,23.45
2019-02-19T13:02:25.348Z,23.83
2019-02-19T13:03:30.423Z,24.80
2019-02-19T13:04:35.589Z,24.67
2019-02-19T13:05:40.565Z,24.43
2019-02-19T13:06:45.588Z,23.85
2019-02-19T13:07:50.640Z,25.27
2019-02-19T13:08:55.676Z,23.67
2019-02-19T13:10:00.591Z,23.75
2019-02-19T13:11:05.614Z,24.25
2019-02-19T13:12:10.686Z,24.18
2019-02-19T13:13:15.913Z,21.80
2019-02-19T13:14:20.953Z,21.33
2019-02-19T13:15:25.915Z,21.15
2019-02-19T13:16:30.689Z,22.25
2019-02-19T13:17:35.559Z,20.05
2019-02-19T13:18:40.561Z,19.55
2019-02-19T13:19:45.353Z,19.67
2019-02-19T13:20:50.239Z,19.60
2019-02-19T13:21:55.158Z,18.60
2019-02-19T13:22:59.981Z,17.95
2019-02-19T13:24:04.858Z,18.92
2019-02-19T13:25:10.164Z,16.25
2019-02-19T13:26:15.291Z,17.32
2019-02-19T13:27:20.258Z,15.75
2019-02-19T13:28:25.071Z,16.50
2019-02-19T13:29:30.154Z,16.60
2019-02-19T13:30:35.126Z,16.20
2019-02-19T13:31:39.990Z,16.85
2019-02-19T13:32:44.979Z,14.93
2019-02-19T13:33:49.808Z,17.23
2019-02-19T13:34:54.686Z,14.93
2019-02-19T13:35:59.450Z,14.23
2019-02-19T13:37:04.431Z,14.07
2019-02-19T13:38:09.291Z,13.98
2019-02-19T13:39:14.125Z,13.93
2019-02-19T13:40:19.035Z,14.18
2019-02-19T13:41:23.847Z,13.70
2019-02-19T13:42:28.842Z,14.10
2019-02-19T13:43:33.673Z,15.40
2019-02-19T13:44:38.432Z,14.90
2019-02-19T13:45:43.197Z,14.60
2019-02-19T13:46:47.992Z,14.53
2019-02-19T13:47:52.967Z,12.90
2019-02-19T13:48:57.767Z,12.88
2019-02-19T13:50:02.697Z,13.38
2019-02-19T13:51:07.639Z,14.25
2019-02-19T13:52:22.593Z,12.37
2019-02-19T13:53:32.196Z,12.37
2019-02-19T13:54:41.900Z,11.90
2019-02-19T13:55:52.321Z,12.63
2019-02-19T13:56:57.334Z,12.33
2019-02-19T13:58:02.336Z,12.37